Flight Track Log - Related Links

Times and Time Zones

All times are in EDT time to prevent confusion due to time zone crossing. See the FLG3432 flight status page for this flight to view local times or setup timezone preferences in your user account.

Time Position Orientation Groundspeed Altitude Reporting Facility
EDT Latitude Longitude Course Direction KTS km/h feet Rate Location/Type
Thu 10:33:08 PM 40.8217 -111.9797 163° South 191 354 5.100  Level Salt Lake Center
Thu 10:34:33 PM 40.9033 -111.9889 355° North 223 414 6.800 1.271 Climbing Salt Lake Center
Thu 10:35:06 PM 40.9447 -111.9942 354° North 250 463 7.600 1.723 Climbing Salt Lake Center
Thu 10:36:00 PM 41.1333 -111.8344 90° East  Level FlightAware Approximate
Thu 10:36:07 PM 41.0203 -111.9839 North 267 494 9.500  Level Salt Lake Center
Thu 10:37:00 PM 41.0626 -111.7414 163° South  Level FlightAware Approximate
Thu 10:37:09 PM 41.0881 -111.9400 26° Northeast 291 539 11.300  Level Salt Lake Center
Thu 10:38:00 PM 40.9565 -111.6976 163° South  Level FlightAware Approximate
Thu 10:38:10 PM 41.0542 -111.8578 119° Southeast 276 512 13.200  Level Salt Lake Center
Thu 10:39:12 PM 40.9917 -111.8094 150° Southeast 286 529 14.000 726 Climbing Salt Lake Center
Thu 10:40:14 PM 40.9050 -111.7417 149° Southeast 348 644 14.700 1.122 Climbing Salt Lake Center
Thu 10:41:15 PM 40.8156 -111.6722 150° Southeast 361 668 16.300 1.512 Climbing Salt Lake Center
Thu 10:42:17 PM 40.7561 -111.5578 124° Southeast 381 705 17.800 1.268 Climbing Salt Lake Center
Thu 10:43:18 PM 40.7133 -111.4214 112° Southeast 394 729 18.900 1.268 Climbing Salt Lake Center
Thu 10:44:20 PM 40.6683 -111.2786 113° Southeast 419 776 20.400 1.317 Climbing Salt Lake Center
Thu 10:45:21 PM 40.6375 -111.1211 104° East 436 808 21.600 1.220 Climbing Salt Lake Center
Thu 10:46:23 PM 40.6250 -110.9606 96° East 433 801 22.900 1.161 Climbing Salt Lake Center
Thu 10:47:25 PM 40.6044 -110.7972 99° East 436 808 24.000 1.024 Climbing Salt Lake Center
Thu 10:48:26 PM 40.5672 -110.6731 112° Southeast 440 814 25.000 1.073 Climbing Salt Lake Center
Thu 10:49:28 PM 40.5075 -110.4981 114° Southeast 390 723 26.200 976 Climbing Salt Lake Center
Thu 10:50:29 PM 40.4611 -110.3519 113° Southeast 436 808 27.000 878 Climbing Salt Lake Center
Thu 10:51:31 PM 40.3939 -110.1867 118° Southeast 454 840 28.000 968 Climbing Salt Lake Center
Thu 10:52:33 PM 40.3164 -110.0597 129° Southeast 460 851 29.000 1.122 Climbing Salt Lake Center
Thu 10:53:34 PM 40.2258 -109.9103 128° Southeast 467 864 30.300 1.366 Climbing Salt Lake Center
Thu 10:54:36 PM 40.1514 -109.7864 128° Southeast 459 850 31.800 1.220 Climbing Salt Lake Center
Thu 10:55:37 PM 40.0783 -109.6644 128° Southeast 448 830 32.800 585 Climbing Salt Lake Center
Thu 10:56:39 PM 39.9933 -109.5219 128° Southeast 448 830 33.000 97 Climbing Salt Lake Center
Thu 10:57:41 PM 39.9186 -109.3894 126° Southeast 467 864 33.000  Level Salt Lake Center
Thu 10:58:42 PM 39.8344 -109.2339 125° Southeast 469 869 33.000  Level Salt Lake Center
Thu 10:59:44 PM 39.7633 -109.1031 125° Southeast 463 858 33.000 195 Level Salt Lake Center
Thu 11:00:45 PM 39.6817 -108.9542 125° Southeast 457 847 33.400 585 Climbing Salt Lake Center
Thu 11:01:47 PM 39.6119 -108.8361 127° Southeast 464 859 34.200 927 Climbing Salt Lake Center
Thu 11:02:48 PM 39.5333 -108.6850 124° Southeast 457 847 35.300 829 Climbing Salt Lake Center
Thu 11:03:50 PM 39.4658 -108.5614 125° Southeast 444 822 35.900 634 Climbing Salt Lake Center
Thu 11:04:51 PM 39.3867 -108.4181 126° Southeast 439 813 36.600 537 Climbing Salt Lake Center
Thu 11:05:53 PM 39.3186 -108.2961 126° Southeast 438 811 37.000 160 Climbing Salt Lake Center
Thu 11:07:21 PM 39.2156 -108.1089 125° Southeast 447 827 37.000  Level Denver Center
Thu 11:08:23 PM 39.1336 -107.9656 126° Southeast 445 824 37.000  Level Denver Center
Thu 11:09:24 PM 39.0642 -107.8444 126° Southeast 441 816 37.000  Level Denver Center
Thu 11:10:26 PM 38.9833 -107.7025 126° Southeast 440 814 37.000  Level Denver Center
Thu 11:11:28 PM 38.9122 -107.5786 126° Southeast 447 827 37.000  Level Denver Center
Thu 11:12:30 PM 38.8408 -107.4525 126° Southeast 454 840 37.000  Level Denver Center
Thu 11:13:31 PM 38.7581 -107.3097 127° Southeast 447 827 37.000  Level Denver Center
Thu 11:14:33 PM 38.6889 -107.1897 126° Southeast 439 813 37.000  Level Denver Center
Thu 11:15:47 PM 38.6008 -107.0389 127° Southeast 443 821 37.000  Level Denver Center
Thu 11:16:49 PM 38.5275 -106.9136 127° Southeast 443 821 37.000  Level Denver Center
Thu 11:17:50 PM 38.4539 -106.7858 126° Southeast 446 826 37.000  Level Denver Center
Thu 11:18:52 PM 38.3653 -106.6356 127° Southeast 446 826 37.000  Level Denver Center
Thu 11:19:54 PM 38.2886 -106.5042 127° Southeast 447 827 37.000  Level Denver Center
Thu 11:20:55 PM 38.2181 -106.3847 127° Southeast 442 819 37.000  Level Denver Center
Thu 11:21:57 PM 38.1444 -106.2628 127° Southeast 435 806 37.000  Level Denver Center
Thu 11:22:59 PM 38.0500 -106.1475 136° Southeast 433 801 37.000  Level Denver Center
Thu 11:24:00 PM 37.9650 -106.0450 136° Southeast 438 811 37.000  Level Denver Center
Thu 11:25:02 PM 37.8628 -105.9311 139° Southeast 439 813 37.000  Level Denver Center
Thu 11:26:04 PM 37.7706 -105.8375 141° Southeast 442 819 37.000  Level Denver Center
Thu 11:27:05 PM 37.6614 -105.7308 142° Southeast 444 822 37.000  Level Denver Center
Thu 11:28:07 PM 37.5683 -105.6419 143° Southeast 439 813 37.000  Level Denver Center
Thu 11:29:08 PM 37.4642 -105.5611 148° Southeast 437 810 37.000  Level Denver Center
Thu 11:30:10 PM 37.3464 -105.4736 149° Southeast 434 803 37.000  Level Denver Center
Thu 11:31:12 PM 37.2536 -105.4028 149° Southeast 431 798 37.000  Level Denver Center
Thu 11:32:13 PM 37.1397 -105.3186 149° Southeast 427 790 37.000  Level Denver Center
Thu 11:33:15 PM 37.0411 -105.2425 148° Southeast 433 801 37.000  Level Denver Center
Thu 11:34:16 PM 36.9311 -105.1603 149° Southeast 442 819 37.000  Level Denver Center
Thu 11:35:13 PM 36.8258 -105.0689 145° Southeast 443 821 37.000  Level Albuquerque Center
Thu 11:36:14 PM 36.7336 -104.9836 143° Southeast 436 808 37.000  Level Albuquerque Center
Thu 11:37:15 PM 36.6356 -104.8953 144° Southeast 432 800 37.000  Level Albuquerque Center
Thu 11:38:17 PM 36.5358 -104.8053 144° Southeast 436 808 37.000  Level Albuquerque Center
Thu 11:39:18 PM 36.4358 -104.7144 144° Southeast 439 813 37.000  Level Albuquerque Center
Thu 11:40:20 PM 36.3358 -104.6233 144° Southeast 440 814 37.000  Level Albuquerque Center
Thu 11:41:21 PM 36.2344 -104.5333 144° Southeast 443 821 37.000  Level Albuquerque Center
Thu 11:42:23 PM 36.1333 -104.4425 144° Southeast 445 824 37.000  Level Albuquerque Center
Thu 11:43:24 PM 36.0147 -104.3353 144° Southeast 447 827 37.000  Level Albuquerque Center
Thu 11:44:25 PM 35.9125 -104.2444 144° Southeast 448 830 37.000  Level Albuquerque Center
Thu 11:46:28 PM 35.7094 -104.0628 144° Southeast 444 822 37.000  Level Albuquerque Center
Thu 11:47:30 PM 35.6086 -103.9731 144° Southeast 442 819 37.000  Level Albuquerque Center
Thu 11:48:31 PM 35.5092 -103.8844 144° Southeast 436 808 37.000  Level Albuquerque Center
Thu 11:49:32 PM 35.4075 -103.7956 145° Southeast 439 813 37.000  Level Albuquerque Center
Thu 11:50:34 PM 35.3053 -103.7067 145° Southeast 442 819 37.000  Level Albuquerque Center
Thu 11:51:35 PM 35.2078 -103.6089 141° Southeast 450 834 37.000  Level Albuquerque Center
Thu 11:52:36 PM 35.1497 -103.4742 118° Southeast 449 832 37.000  Level Albuquerque Center
Thu 11:53:38 PM 35.1139 -103.3314 107° East 439 813 37.000  Level Albuquerque Center
Thu 11:54:39 PM 35.0769 -103.1911 108° East 433 801 37.000  Level Albuquerque Center
Thu 11:55:40 PM 35.0392 -103.0514 108° East 431 798 37.000  Level Albuquerque Center
Thu 11:56:42 PM 35.0019 -102.9106 108° East 433 801 37.000  Level Albuquerque Center
Thu 11:57:43 PM 34.9650 -102.7678 107° East 436 808 37.000  Level Albuquerque Center
Thu 11:58:44 PM 34.9253 -102.6178 108° East 435 806 37.000  Level Albuquerque Center
Thu 11:59:46 PM 34.8875 -102.4781 108° East 436 808 37.000  Level Albuquerque Center
Fri 12:00:47 AM 34.8500 -102.3389 108° East 436 808 37.000  Level Albuquerque Center
Fri 12:01:49 AM 34.8128 -102.1992 108° East 436 808 37.000  Level Albuquerque Center
Fri 12:02:49 AM 34.7742 -102.0600 109° East 437 810 37.000  Level Albuquerque Center
Fri 12:03:51 AM 34.7289 -101.8919 108° East 439 813 37.000  Level Albuquerque Center
Fri 12:04:52 AM 34.6919 -101.7586 109° East 426 789 37.000  Level Albuquerque Center
Fri 12:05:53 AM 34.6572 -101.6281 108° East 414 766 37.000  Level Albuquerque Center
Fri 12:06:54 AM 34.6211 -101.4950 108° East 416 771 37.000  Level Albuquerque Center
Fri 12:07:56 AM 34.5833 -101.3608 109° East 420 777 37.000  Level Albuquerque Center
Fri 12:08:57 AM 34.5461 -101.2272 109° East 420 777 37.000  Level Albuquerque Center
Fri 12:09:58 AM 34.5094 -101.0944 108° East 419 776 37.000  Level Albuquerque Center
Fri 12:10:59 AM 34.4725 -100.9631 109° East 417 772 37.000  Level Albuquerque Center
Fri 12:12:00 AM 34.4281 -100.8047 109° East 415 769 37.000  Level Albuquerque Center
Fri 12:13:02 AM 34.3897 -100.6733 109° East 415 769 37.000 -466 Level Albuquerque Center
Fri 12:13:43 AM 34.3686 -100.5961 108° East 415 769 36.200 -1.663 Descending Fort Worth Center
Fri 12:14:43 AM 34.3322 -100.4642 108° East 415 769 34.200 -1.600 Descending Fort Worth Center
Fri 12:15:43 AM 34.2917 -100.3244 109° East 421 779 33.000 -600 Descending Fort Worth Center
Fri 12:16:43 AM 34.2511 -100.1847 109° East 434 803 33.000  Level Fort Worth Center
Fri 12:17:43 AM 34.2083 -100.0403 110° East 439 813 33.000  Level Fort Worth Center
Fri 12:18:43 AM 34.1675 -99.8961 109° East 449 832 33.000  Level Fort Worth Center
Fri 12:19:43 AM 34.1242 -99.7517 110° East 449 832 33.000  Level Fort Worth Center
Fri 12:20:43 AM 34.0831 -99.6078 109° East 449 832 33.000 -100 Level Fort Worth Center
Fri 12:21:43 AM 34.0397 -99.4661 110° East 456 845 32.800 -600 Descending Fort Worth Center
Fri 12:22:43 AM 33.9981 -99.3250 110° East 450 834 31.800 -1.000 Descending Fort Worth Center
Fri 12:23:43 AM 33.9542 -99.1814 110° East 450 834 30.800 -1.000 Descending Fort Worth Center
Fri 12:24:43 AM 33.9103 -99.0453 111° Southeast 450 834 29.800 -1.000 Descending Fort Worth Center
Fri 12:25:43 AM 33.8617 -98.9092 113° Southeast 445 824 28.800 -1.200 Descending Fort Worth Center
Fri 12:26:43 AM 33.8050 -98.7583 114° Southeast 439 813 27.400 -1.650 Descending Fort Worth Center
Fri 12:27:43 AM 33.7542 -98.6200 114° Southeast 444 822 25.500 -1.750 Descending Fort Worth Center
Fri 12:28:43 AM 33.7136 -98.5122 114° Southeast 444 822 23.900 -2.050 Descending Fort Worth Center
Fri 12:29:43 AM 33.6542 -98.3617 115° Southeast 444 822 21.400 -2.550 Descending Fort Worth Center
Fri 12:30:43 AM 33.6031 -98.2167 113° Southeast 435 806 18.800 -2.250 Descending Fort Worth Center
Fri 12:31:43 AM 33.5536 -98.0914 115° Southeast 415 769 16.900 -1.900 Descending Fort Worth Center
Fri 12:32:43 AM 33.5106 -97.9789 115° Southeast 408 756 15.000 -2.000 Descending Fort Worth Center
Fri 12:33:43 AM 33.4608 -97.8492 115° Southeast 397 735 12.900 -1.950 Descending Fort Worth Center
Fri 12:34:43 AM 33.4194 -97.7419 115° Southeast 397 735 11.100 -950 Descending Fort Worth Center
Fri 12:35:43 AM 33.3697 -97.6175 116° Southeast 380 703 11.000 -400 Descending Fort Worth Center
Fri 12:36:43 AM 33.3156 -97.5278 126° Southeast 349 647 10.300 -800 Descending Fort Worth Center
Fri 12:37:43 AM 33.2717 -97.4508 124° Southeast 316 586 9.400 -1.100 Descending Fort Worth Center
Fri 12:38:43 AM 33.2217 -97.3639 124° Southeast 299 554 8.100 -1.350 Descending Fort Worth Center
Fri 12:39:43 AM 33.1756 -97.2819 124° Southeast 299 554 6.700 -1.500 Descending Fort Worth Center
Fri 12:40:43 AM 33.1422 -97.1925 114° Southeast 286 529 5.100 -1.350 Descending Fort Worth Center
Fri 12:41:43 AM 33.1147 -97.1108 112° Southeast 276 512 4.000 -1.050 Descending Fort Worth Center
Fri 12:42:43 AM 33.0708 -97.0639 138° Southeast 224 415 3.000 -600 Descending Fort Worth Center
Fri 12:43:43 AM 33.0333 -97.0517 165° South 187 346 2.800 -500 Descending Fort Worth Center
Fri 12:44:43 AM 32.9894 -97.0494 178° South 161 298 2.000 -750 Descending Fort Worth Center
Fri 12:45:43 AM 32.9519 -97.0519 183° South 149 275 1.300 -700 Descending Fort Worth Center

Login

Don't have an account? Register now (free) for customized features, flight alerts, and more!